Mobile Site You Are Here >  >  >  > Jayce Boyd 2013 Minor League Gamelogs & Splits

News: s-r blog:2014 MLB Draft Tools


Jayce Boyd

David Jayce Boyd

Positions: First Baseman and Designated Hitter
Bats: Right, Throws: Right
Height: 6' 3", Weight: 185 lb.

Born: December 30, 1990 in Cantonment, Florida, US
High School: J M Tate HS (Cantonment, FL)
School: Florida State University (Tallahassee, FL)

Drafted by the Texas Rangers in the 19th round of the 2009 MLB June Amateur Draft from J M Tate HS (Cantonment, FL) and the New York Mets in the 6th round of the 2012 MLB June Amateur Draft from Florida State University (Tallahassee, FL).

Jayce Boyd
/ Gamelogs & Splits
 Batting: 2014 / 2013 / 2012

2013 Player Batting Gamelog

Rk Date Lev Tm   Opp PA AB R H 2B 3B HR RBI BB IBB SO HBP SH SF GDP SB CS Pos E
1 2013-04-04 A-SALL Savannah Sand Gnats Rome Braves 4 4 1 3 1 0 0 2 0 0 0 0 0 0 0 0 0 1B 0
2 2013-04-05 A-SALL Savannah Sand Gnats Rome Braves 5 2 1 1 0 0 0 0 3 0 0 0 0 0 0 0 0 1B 0
3 2013-04-06 A-SALL Savannah Sand Gnats @ Rome Braves 4 4 0 1 1 0 0 0 0 0 3 0 0 0 0 0 0 1B 0
4 2013-04-07 A-SALL Savannah Sand Gnats @ Rome Braves 5 4 1 3 1 0 0 1 1 0 0 0 0 0 0 0 0 1B 0
5 2013-04-08 A-SALL Savannah Sand Gnats Augusta GreenJackets 5 3 0 1 0 0 0 2 2 0 0 0 0 0 0 0 0 1B 0
6 2013-04-09 A-SALL Savannah Sand Gnats Augusta GreenJackets 5 5 1 3 1 0 0 1 0 0 1 0 0 0 0 0 0 1B 0
7 2013-04-10 A-SALL Savannah Sand Gnats Augusta GreenJackets 5 4 1 1 0 0 0 0 1 0 1 0 0 0 0 0 0 1B 0
8 2013-04-12 A-SALL Savannah Sand Gnats @ Rome Braves 4 4 0 0 0 0 0 0 0 0 1 0 0 0 1 0 0 1B 0
9 2013-04-13 A-SALL Savannah Sand Gnats Rome Braves 4 4 1 1 0 0 1 4 0 0 0 0 0 0 0 0 0 1B 0
10 2013-04-14 A-SALL Savannah Sand Gnats Rome Braves 4 4 0 0 0 0 0 0 0 0 0 0 0 0 0 0 0 1B 0
11 2013-04-15 A-SALL Savannah Sand Gnats @ Greensboro Grasshoppers 5 5 0 2 1 0 0 0 0 0 1 0 0 0 0 0 1 1B 0
12 2013-04-16 A-SALL Savannah Sand Gnats @ Greensboro Grasshoppers 5 4 1 2 0 0 0 1 0 0 0 0 0 1 0 0 0 1B 0
13 2013-04-17 A-SALL Savannah Sand Gnats @ Greensboro Grasshoppers 5 3 1 1 0 0 0 0 1 0 1 1 0 0 0 0 0 1B 1
14 2013-04-18 A-SALL Savannah Sand Gnats @ Lakewood BlueClaws 4 3 0 1 0 0 0 0 1 0 0 0 0 0 0 0 1 1B 0
15 2013-04-19 A-SALL Savannah Sand Gnats @ Lakewood BlueClaws 5 5 1 1 0 0 0 1 0 0 1 0 0 0 0 0 0 1B 0
16 2013-04-20 A-SALL Savannah Sand Gnats @ Lakewood BlueClaws 5 4 0 3 1 0 0 4 1 0 0 0 0 0 0 0 0 1B 0
17 2013-04-21 A-SALL Savannah Sand Gnats @ Lakewood BlueClaws 5 5 1 2 1 0 0 0 0 0 0 0 0 0 0 0 0 1B 1
18 2013-04-23 A-SALL Savannah Sand Gnats Delmarva Shorebirds 5 4 1 2 1 0 0 2 1 0 0 0 0 0 0 0 0 1B 0
19 2013-04-24 A-SALL Savannah Sand Gnats Delmarva Shorebirds 5 2 2 2 1 0 0 2 3 0 0 0 0 0 0 0 0 1B 0
20 2013-04-25 A-SALL Savannah Sand Gnats Delmarva Shorebirds 4 4 2 3 0 0 1 2 0 0 0 0 0 0 0 0 0 1B 0
21 2013-04-26 A-SALL Savannah Sand Gnats West Virginia Power 4 4 1 1 0 0 0 0 0 0 0 0 0 0 1 0 0 1B 0
22 2013-04-27 A-SALL Savannah Sand Gnats West Virginia Power 3 3 0 0 0 0 0 0 0 0 0 0 0 0 0 0 0 1B 0
23 2013-04-28 A-SALL Savannah Sand Gnats West Virginia Power 5 4 0 0 0 0 0 0 1 0 1 0 0 0 0 0 0 1B 0
24 2013-04-29 A-SALL Savannah Sand Gnats West Virginia Power 4 3 0 1 0 0 0 0 1 0 0 0 0 0 0 0 0 1B 0
25 2013-05-01 A-SALL Savannah Sand Gnats Kannapolis Intimidators 5 5 0 1 0 0 0 1 0 0 1 0 0 0 0 0 0 1B 0
26 2013-05-02 A-SALL Savannah Sand Gnats Kannapolis Intimidators 4 4 3 2 1 0 0 2 0 0 0 0 0 0 1 0 0 1B 0
27 2013-05-03 A-SALL Savannah Sand Gnats Kannapolis Intimidators 5 5 2 2 0 0 0 2 0 0 1 0 0 0 0 0 0 1B 0
28 2013-05-04 A-SALL Savannah Sand Gnats @ Hickory Crawdads 5 4 1 1 0 0 0 0 1 0 0 0 0 0 0 0 0 1B 1
29 2013-05-06 A-SALL Savannah Sand Gnats @ Hickory Crawdads 4 3 0 2 0 0 0 1 0 0 0 1 0 0 0 0 0 1B 0
30 2013-05-06 (2) A-SALL Savannah Sand Gnats @ Hickory Crawdads 3 3 0 1 0 0 0 1 0 0 2 0 0 0 0 0 0 1B 0
31 2013-05-07 A-SALL Savannah Sand Gnats @ Hickory Crawdads 5 3 0 1 0 0 0 1 2 0 1 0 0 0 0 0 0 1B 0
32 2013-05-09 A-SALL Savannah Sand Gnats Rome Braves 4 4 0 0 0 0 0 0 0 0 0 0 0 0 0 0 0 1B 0
33 2013-05-10 A-SALL Savannah Sand Gnats Rome Braves 4 2 1 1 1 0 0 1 2 0 0 0 0 0 0 0 0 1B 0
34 2013-05-11 A-SALL Savannah Sand Gnats Rome Braves 4 4 1 2 0 0 1 1 0 0 0 0 0 0 0 0 0 1B 0
35 2013-05-12 A-SALL Savannah Sand Gnats Rome Braves 4 3 0 0 0 0 0 0 1 0 0 0 0 0 0 0 0 1B 0
36 2013-05-13 A-SALL Savannah Sand Gnats @ Charleston RiverDogs 5 5 0 0 0 0 0 0 0 0 1 0 0 0 0 0 0 1B 0
37 2013-05-15 A-SALL Savannah Sand Gnats @ Charleston RiverDogs 5 4 0 2 2 0 0 0 1 0 0 0 0 0 0 0 0 0
38 2013-05-16 A-SALL Savannah Sand Gnats @ Augusta GreenJackets 5 4 1 2 0 0 0 0 1 1 1 0 0 0 0 0 0 0
39 2013-05-18 A-SALL Savannah Sand Gnats @ Augusta GreenJackets 4 4 1 2 1 0 0 0 0 0 1 0 0 0 0 0 1 0
40 2013-05-19 A-SALL Savannah Sand Gnats @ Augusta GreenJackets 6 6 1 1 0 0 0 0 0 0 2 0 0 0 0 0 0 0
41 2013-05-20 A-SALL Savannah Sand Gnats Charleston RiverDogs 4 4 0 0 0 0 0 0 0 0 1 0 0 0 0 0 0 0
42 2013-05-21 A-SALL Savannah Sand Gnats Charleston RiverDogs 4 4 0 0 0 0 0 0 0 0 1 0 0 0 1 0 0 0
43 2013-05-23 A-SALL Savannah Sand Gnats Augusta GreenJackets 4 4 0 2 1 0 0 2 0 0 0 0 0 0 0 0 0 0
44 2013-05-24 A-SALL Savannah Sand Gnats Augusta GreenJackets 4 4 2 2 0 0 0 0 0 0 0 0 0 0 0 0 0 0
45 2013-05-25 A-SALL Savannah Sand Gnats Augusta GreenJackets 1 1 0 0 0 0 0 0 0 0 0 0 0 0 0 0 0 0
46 2013-05-26 A-SALL Savannah Sand Gnats Augusta GreenJackets 6 5 0 3 0 0 0 0 1 0 1 0 0 0 0 0 1 0
47 2013-05-28 A-SALL Savannah Sand Gnats @ Greenville Drive 5 4 2 2 1 0 0 0 1 0 0 0 0 0 0 0 0 0
48 2013-05-29 A-SALL Savannah Sand Gnats @ Greenville Drive 4 4 0 1 0 0 0 1 0 0 2 0 0 0 1 0 0 0
49 2013-05-30 A-SALL Savannah Sand Gnats @ Kannapolis Intimidators 5 4 0 2 0 0 0 0 1 0 0 0 0 0 0 0 0 0
50 2013-05-31 A-SALL Savannah Sand Gnats @ Kannapolis Intimidators 4 4 0 1 0 0 0 1 0 0 1 0 0 0 0 0 0 1B 0
51 2013-06-01 A-SALL Savannah Sand Gnats @ Kannapolis Intimidators 4 4 0 0 0 0 0 0 0 0 0 0 0 0 0 0 0 1B 0
52 2013-06-02 A-SALL Savannah Sand Gnats @ Kannapolis Intimidators 5 4 2 2 0 0 0 0 1 0 0 0 0 0 0 0 0 0
53 2013-06-04 A-SALL Savannah Sand Gnats Lexington Legends 5 4 0 1 0 0 0 1 1 0 0 0 0 0 1 0 0 1B 0
54 2013-06-05 A-SALL Savannah Sand Gnats Lexington Legends 4 4 0 1 0 0 0 0 0 0 0 0 0 0 0 0 0 1B 0
55 2013-06-07 A-SALL Savannah Sand Gnats @ Rome Braves 5 5 0 2 0 0 0 1 0 0 3 0 0 0 0 0 0 1B 0
56 2013-06-08 A-SALL Savannah Sand Gnats @ Rome Braves 3 3 0 1 0 0 0 0 0 0 1 0 0 0 0 0 0 1B 0
57 2013-06-08 (2) A-SALL Savannah Sand Gnats @ Rome Braves 3 3 0 0 0 0 0 0 0 0 0 0 0 0 0 0 0 1B 0
58 2013-06-09 A-SALL Savannah Sand Gnats @ Rome Braves 5 5 0 1 0 0 0 1 0 0 2 0 0 0 0 0 0 1B 0
59 2013-06-11 A-SALL Savannah Sand Gnats Asheville Tourists 4 4 0 1 0 0 0 0 0 0 0 0 0 0 0 0 0 1B 0
60 2013-06-11 (2) A-SALL Savannah Sand Gnats Asheville Tourists 4 4 0 1 0 0 0 0 0 0 0 0 0 0 1 0 0 1B 0
61 2013-06-12 A-SALL Savannah Sand Gnats Asheville Tourists 5 4 0 1 0 0 0 1 0 0 0 0 0 1 0 0 0 1B 0
62 2013-06-13 A-SALL Savannah Sand Gnats Greenville Drive 5 4 2 4 0 1 1 3 1 0 0 0 0 0 0 0 0 1B 0
63 2013-06-14 A-SALL Savannah Sand Gnats Greenville Drive 5 3 0 2 0 0 0 0 2 0 0 0 0 0 0 0 0 1B 0
64 2013-06-15 A-SALL Savannah Sand Gnats Greenville Drive 4 4 3 3 0 0 1 2 0 0 0 0 0 0 0 0 0 1B 0
65 2013-06-16 A-SALL Savannah Sand Gnats Greenville Drive 5 2 2 2 0 0 0 1 3 0 0 0 0 0 0 0 0 1B 0
Player Moved from A-SALL to A+-FLOR
66 2013-06-20 A+-FLOR St. Lucie Mets @ Palm Beach Cardinals 5 5 0 2 0 0 0 1 0 0 1 0 0 0 0 0 0 1B 0
67 2013-06-21 A+-FLOR St. Lucie Mets @ Palm Beach Cardinals 4 4 1 3 0 0 0 1 0 0 0 0 0 0 0 0 0 1B 0
68 2013-06-22 A+-FLOR St. Lucie Mets @ Palm Beach Cardinals 4 4 1 2 0 0 0 1 0 0 1 0 0 0 0 0 0 1B 1
69 2013-06-23 A+-FLOR St. Lucie Mets Bradenton Marauders 4 4 1 2 1 0 1 2 0 0 0 0 0 0 0 0 0 1B 0
70 2013-06-24 A+-FLOR St. Lucie Mets Bradenton Marauders 6 6 1 2 0 0 0 1 0 0 0 0 0 0 0 0 0 1B 0
71 2013-06-25 A+-FLOR St. Lucie Mets Bradenton Marauders 4 3 0 1 1 0 0 1 0 0 0 0 1 0 0 0 0 1B 1
72 2013-06-26 A+-FLOR St. Lucie Mets Palm Beach Cardinals 4 4 2 1 0 0 0 0 0 0 0 0 0 0 0 0 0 1B 0
73 2013-06-27 A+-FLOR St. Lucie Mets Palm Beach Cardinals 5 5 2 2 1 0 1 3 0 0 0 0 0 0 0 0 0 1B 0
74 2013-06-28 A+-FLOR St. Lucie Mets Palm Beach Cardinals 4 4 1 2 0 1 0 1 0 0 0 0 0 0 1 0 0 1B 0
75 2013-06-29 A+-FLOR St. Lucie Mets @ Fort Myers Miracle 4 4 0 1 0 0 0 0 0 0 0 0 0 0 0 0 0 0
76 2013-06-30 A+-FLOR St. Lucie Mets @ Fort Myers Miracle 3 3 0 0 0 0 0 0 0 0 1 0 0 0 0 0 0 0
77 2013-07-04 A+-FLOR St. Lucie Mets Jupiter Hammerheads 4 2 1 1 0 0 0 0 1 0 0 1 0 0 0 0 0 0
78 2013-07-05 A+-FLOR St. Lucie Mets Jupiter Hammerheads 4 4 0 2 1 0 0 0 0 0 1 0 0 0 0 0 0 0
79 2013-07-06 A+-FLOR St. Lucie Mets Fort Myers Miracle 5 5 2 2 0 0 1 1 0 0 0 0 0 0 0 0 0 0
80 2013-07-07 A+-FLOR St. Lucie Mets Fort Myers Miracle 4 4 0 1 0 0 0 0 0 0 0 0 0 0 0 0 0 0
81 2013-07-08 A+-FLOR St. Lucie Mets Fort Myers Miracle 4 2 0 0 0 0 0 0 2 0 0 0 0 0 0 0 0 0
82 2013-07-09 A+-FLOR St. Lucie Mets @ Charlotte Stone Crabs 4 3 0 0 0 0 0 0 1 0 1 0 0 0 0 0 0 0
83 2013-07-10 A+-FLOR St. Lucie Mets @ Charlotte Stone Crabs 5 4 1 1 1 0 0 1 1 1 2 0 0 0 0 0 0 0
84 2013-07-11 A+-FLOR St. Lucie Mets @ Charlotte Stone Crabs 5 5 0 1 0 0 0 0 0 0 2 0 0 0 0 0 0 0
85 2013-07-12 A+-FLOR St. Lucie Mets Dunedin Blue Jays 4 4 0 0 0 0 0 0 0 0 0 0 0 0 0 0 0 0
86 2013-07-14 A+-FLOR St. Lucie Mets Dunedin Blue Jays 3 2 0 0 0 0 0 1 0 0 1 0 0 1 0 0 0 0
87 2013-07-15 A+-FLOR St. Lucie Mets Dunedin Blue Jays 4 2 0 0 0 0 0 1 1 0 0 0 0 1 0 0 0 0
88 2013-07-17 A+-FLOR St. Lucie Mets @ Brevard County Manatees 5 4 1 1 1 0 0 1 0 0 0 1 0 0 0 0 0 0
89 2013-07-18 A+-FLOR St. Lucie Mets @ Brevard County Manatees 4 4 0 1 1 0 0 2 0 0 0 0 0 0 0 0 0 0
90 2013-07-19 A+-FLOR St. Lucie Mets Brevard County Manatees 4 4 0 1 0 0 0 1 0 0 0 0 0 0 0 0 0 0
91 2013-07-21 A+-FLOR St. Lucie Mets @ Daytona Cubs 5 4 2 2 1 0 1 2 1 0 0 0 0 0 0 0 0 0
92 2013-07-23 A+-FLOR St. Lucie Mets @ Daytona Cubs 4 3 1 0 0 0 0 0 1 0 0 0 0 0 1 0 0 0
93 2013-07-23 (2) A+-FLOR St. Lucie Mets @ Daytona Cubs 3 3 0 1 0 0 0 0 0 0 1 0 0 0 0 0 0 0
94 2013-07-26 A+-FLOR St. Lucie Mets @ Lakeland Flying Tigers 4 4 1 1 1 0 0 2 0 0 1 0 0 0 0 0 0 0
95 2013-07-26 (2) A+-FLOR St. Lucie Mets @ Lakeland Flying Tigers 4 2 1 0 0 0 0 0 2 0 0 0 0 0 0 1 0 0
96 2013-07-27 A+-FLOR St. Lucie Mets @ Lakeland Flying Tigers 4 4 0 0 0 0 0 0 0 0 0 0 0 0 0 0 0 0
97 2013-07-28 A+-FLOR St. Lucie Mets @ Lakeland Flying Tigers 4 3 0 0 0 0 0 0 1 0 2 0 0 0 0 0 0 0
98 2013-07-29 A+-FLOR St. Lucie Mets Tampa Yankees 4 3 0 1 0 0 0 0 1 0 1 0 0 0 0 0 0 0
99 2013-07-30 A+-FLOR St. Lucie Mets Tampa Yankees 4 4 0 1 0 0 0 0 0 0 2 0 0 0 0 0 0 0
100 2013-08-01 A+-FLOR St. Lucie Mets Tampa Yankees 4 3 2 1 0 0 0 0 1 0 0 0 0 0 0 0 0 0
101 2013-08-02 A+-FLOR St. Lucie Mets Clearwater Threshers 4 4 0 2 0 0 0 0 0 0 1 0 0 0 1 0 0 0
102 2013-08-03 A+-FLOR St. Lucie Mets Clearwater Threshers 5 2 2 1 0 0 0 3 3 0 0 0 0 0 0 0 0 0
103 2013-08-04 A+-FLOR St. Lucie Mets Clearwater Threshers 1 1 0 0 0 0 0 0 0 0 1 0 0 0 0 0 0 0
104 2013-08-07 A+-FLOR St. Lucie Mets @ Bradenton Marauders 4 3 0 0 0 0 0 1 1 0 1 0 0 0 0 0 0 0
105 2013-08-10 A+-FLOR St. Lucie Mets Palm Beach Cardinals 5 5 0 1 1 0 0 0 0 0 0 0 0 0 0 0 0 0
106 2013-08-11 A+-FLOR St. Lucie Mets Palm Beach Cardinals 6 4 1 2 1 0 0 2 2 0 0 0 0 0 0 0 0 0
107 2013-08-12 A+-FLOR St. Lucie Mets Palm Beach Cardinals 4 4 0 1 1 0 0 1 0 0 0 0 0 0 1 0 0 0
108 2013-08-13 A+-FLOR St. Lucie Mets Fort Myers Miracle 4 4 0 0 0 0 0 0 0 0 2 0 0 0 0 0 0 0
109 2013-08-14 A+-FLOR St. Lucie Mets Fort Myers Miracle 4 4 0 1 0 0 0 0 0 0 1 0 0 0 0 0 0 0
110 2013-08-15 A+-FLOR St. Lucie Mets Fort Myers Miracle 5 5 0 2 0 0 0 0 0 0 2 0 0 0 0 0 0 0
111 2013-08-17 A+-FLOR St. Lucie Mets @ Jupiter Hammerheads 4 3 0 0 0 0 0 0 1 0 0 0 0 0 0 0 0 0
112 2013-08-18 A+-FLOR St. Lucie Mets @ Jupiter Hammerheads 4 2 0 1 0 0 0 0 1 0 1 0 1 0 0 0 0 0
113 2013-08-20 A+-FLOR St. Lucie Mets @ Palm Beach Cardinals 5 5 1 2 0 0 0 1 0 0 0 0 0 0 0 0 0 0
114 2013-08-21 A+-FLOR St. Lucie Mets @ Palm Beach Cardinals 3 3 0 0 0 0 0 0 0 0 0 0 0 0 0 0 0 0
115 2013-08-22 A+-FLOR St. Lucie Mets @ Palm Beach Cardinals 4 4 0 0 0 0 0 0 0 0 0 0 0 0 0 0 0 0
116 2013-08-25 A+-FLOR St. Lucie Mets @ Fort Myers Miracle 3 2 0 1 0 0 0 0 1 0 0 0 0 0 0 0 0 0
117 2013-08-25 (2) A+-FLOR St. Lucie Mets @ Fort Myers Miracle 3 3 0 2 0 0 0 2 0 0 0 0 0 0 0 0 0 0
118 2013-08-26 A+-FLOR St. Lucie Mets Charlotte Stone Crabs 4 4 0 1 0 0 0 0 0 0 0 0 0 0 0 0 0 0
119 2013-08-27 A+-FLOR St. Lucie Mets Charlotte Stone Crabs 4 4 0 2 0 0 0 1 0 0 0 0 0 0 0 0 0 0
120 2013-08-28 A+-FLOR St. Lucie Mets Charlotte Stone Crabs 5 3 0 0 0 0 0 0 2 1 1 0 0 0 0 0 0 0
121 2013-08-29 A+-FLOR St. Lucie Mets @ Jupiter Hammerheads 4 4 0 1 0 0 0 0 0 0 1 0 0 0 0 0 0 0
122 2013-08-30 A+-FLOR St. Lucie Mets @ Jupiter Hammerheads 5 3 0 1 0 0 0 0 2 0 1 0 0 0 0 1 0 0
123 2013-09-01 A+-FLOR St. Lucie Mets Jupiter Hammerheads 5 5 3 4 1 0 0 3 0 0 0 0 0 0 0 0 0 0

2013 Player Batting Splits

Split G PA AB R H 2B 3B HR RBI SB CS BB SO BA OBP SLG OPS TB GDP HBP SH SF IBB
Total 123 529 458 68 151 29 2 9 83 2 4 61 61 .330 .410 .461 .871 211 11 4 2 4 3
Home 67 287 246 45 87 15 2 8 54 0 1 36 21 .354 .434 .528 .962 130 8 1 1 3 1
Away 56 242 212 23 64 14 0 1 29 2 3 25 40 .302 .382 .382 .764 81 3 3 1 1 2
vs RHP as RHB 115 398 348 115 24 2 7 64 41 45 .330 .402 .471 .873 164 9 3 2 4 3
vs LHP as RHB 62 131 110 36 5 0 2 19 20 16 .327 .435 .427 .862 47 2 1 0 0 0
April 24 109 91 16 35 9 0 2 22 0 2 16 10 .385 .477 .549 1.027 50 2 1 0 1 0
May 26 113 101 15 33 7 0 1 14 0 2 11 16 .327 .398 .426 .824 43 3 1 0 0 1
June 26 113 103 18 40 3 2 4 21 0 0 8 9 .388 .429 .573 1.001 59 3 0 1 1 0
July 23 95 79 10 17 6 0 2 12 1 0 12 14 .215 .326 .367 .693 29 1 2 0 2 1
August 23 94 79 6 22 3 0 0 11 1 0 14 12 .278 .387 .316 .704 25 2 0 1 0 1
September 1 5 5 3 4 1 0 0 3 0 0 0 0 .800 .800 1.000 1.800 5 0 0 0 0 0
2 outs, RISP 72 94 81 27 3 0 3 29 12 8 .333 .426 .481 .907 39 0 1 0 0 0
vs. Younger Pitchers 77 229 192 68 10 1 6 37 35 28 .354 .454 .510 .965 98 9 1 0 1 1
vs. Older Pitchers 108 291 257 81 19 1 3 46 26 32 .315 .381 .432 .813 111 2 3 2 3 2
Please note that splits include both major and minor league stats. We have decided that the splits across all levels is more useful than just minor league stats.

About the Minor League Data

Performance data on minor and international leagues is licensed from and provided by the SABR Minor Leagues Database, a community project sponsored by the Minor Leagues Committee of the Society for American Baseball Research.

The database is under active development. Many statistics are incomplete due to ongoing research and/or limitations in published sources. To learn more about these limitations, or to find out how to contribute, click here.

Minor league Total Zone (Rctch&Rtz, 2005-2009) data provided by Baseballprojection.com and Minorleaguesplits.com.